Terminal Aerodrome Forecast
Issued by NWS Corpus Christi, TX

Home | Current Version | Previous Version | Text Only | Print | Product List | Glossary On
Versions: 1 2 3 4 5 6 7 8 9 10 11 12 13 14 15 16 17
851
FTUS44 KCRP 081135
TAFCRP
TAF
KCRP 081135Z 0812/0912 02024G32KT P6SM VCSH OVC025
     FM081600 02026G32KT P6SM OVC010
     FM090100 01018G25KT P6SM OVC015
     FM090400 01016KT P6SM OVC050=

USA.gov is the U.S. government's official web portal to all federal, state and local government web resources and services.